MSC Adriana — 9HA2642 — position and weather

sailwx.info

Track history (hours):
 
Tides and Currents Weather Stations Pressure Air Temp Water Temp Dewpoint Dewpoint Depression Visibility Wind Speed Wind Dir Waves Ship Positions

MSC Adriana

Last reported at 2017-Oct-16 21:15 UTC. Time now 2017-Oct-20 16:28 UTC.
Position N 32°55' E 034°44'.

Length 216 m; draft 7.6 m.

Type: Cargo ship. MMSI: 215108000.

Date/timePositionNaut miles runAvg speedWind from/ knotsBaromVisibWave heightAir tempDewpointWater temp
2017-Oct-16 21:15N 32°55' E 034°44'10 0.5
2017-Oct-16 03:09N 32°54' E 034°56'  
2017-Oct-12 22:50N 37°46' E 016°02'1112.7
2017-Oct-12 22:00N 37°50' E 015°50'612.5
2017-Oct-12 21:30N 37°52' E 015°43'612.5
2017-Oct-12 21:00N 37°55' E 015°35'611.6
2017-Oct-12 20:30N 38°00' E 015°33'612.5
2017-Oct-12 20:01N 38°06' E 015°35'612.3
2017-Oct-12 19:30N 38°12' E 015°35'714.7
2017-Oct-12 19:00N 38°18' E 015°42'612.4
2017-Oct-12 18:31N 38°22' E 015°47'611.9
2017-Oct-12 18:01N 38°27' E 015°52'2 1.3
2017-Oct-12 16:44N 38°27' E 015°54'0 0.0
2017-Oct-12 16:20N 38°27' E 015°54'0 0.0
2017-Oct-12 14:41N 38°27' E 015°54'0 0.0
2017-Oct-12 14:20N 38°27' E 015°54'0 0.0
2017-Oct-12 12:59N 38°27' E 015°54'0 0.0
2017-Oct-12 12:29N 38°27' E 015°54'0 0.0
2017-Oct-12 10:35N 38°27' E 015°54'0 0.0
2017-Oct-12 10:23N 38°27' E 015°54'0 0.0
2017-Oct-12 08:44N 38°27' E 015°54'0 0.0
2017-Oct-12 08:20N 38°27' E 015°54'0 0.0
2017-Oct-12 07:56N 38°27' E 015°54'0 0.0
2017-Oct-12 07:26N 38°27' E 015°54'0 0.0
2017-Oct-12 06:59N 38°27' E 015°54'0 0.0
2017-Oct-12 06:29N 38°27' E 015°54'0 0.0
2017-Oct-12 05:26N 38°27' E 015°54'0 0.0
2017-Oct-12 04:41N 38°27' E 015°54'0 0.0
2017-Oct-12 01:02N 38°27' E 015°54'0 0.0
2017-Oct-12 00:56N 38°27' E 015°54'0 0.0
2017-Oct-12 00:26N 38°27' E 015°54'0 0.0
2017-Oct-11 23:56N 38°27' E 015°54'0 0.0
2017-Oct-11 23:26N 38°27' E 015°54'0 0.0
2017-Oct-11 22:50N 38°27' E 015°54'0 0.0
2017-Oct-11 22:26N 38°27' E 015°54'0 0.0
2017-Oct-11 21:56N 38°27' E 015°54'0 0.0
2017-Oct-11 21:26N 38°27' E 015°54'0 0.0
2017-Oct-11 20:56N 38°27' E 015°54'0 0.0
2017-Oct-11 19:44N 38°27' E 015°54'0 0.0
2017-Oct-11 19:23N 38°27' E 015°54'0 0.0
2017-Oct-11 18:56N 38°27' E 015°54'0 0.0
2017-Oct-11 17:50N 38°27' E 015°54'0 0.0
2017-Oct-11 17:26N 38°27' E 015°54'0 0.0
2017-Oct-11 16:41N 38°27' E 015°54'11 0.6
2017-Oct-10 23:56N 38°27' E 015°41'0 0.7
2017-Oct-10 23:30N 38°27' E 015°40'0 0.2
2017-Oct-10 23:00N 38°27' E 015°40'0 0.4
2017-Oct-10 22:30N 38°27' E 015°41'0 0.5
2017-Oct-10 21:59N 38°27' E 015°41'0 0.7
2017-Oct-10 21:30N 38°27' E 015°41'4 7.4
2017-Oct-10 21:00N 38°29' E 015°45'2 3.1
2017-Oct-10 20:30N 38°30' E 015°47'0 0.3
2017-Oct-10 20:00N 38°30' E 015°47'0 0.3
2017-Oct-10 19:30N 38°30' E 015°47'0 0.2
2017-Oct-10 19:00N 38°30' E 015°47'3 0.6
2017-Oct-10 13:25N 38°28' E 015°43'5 1.0
2017-Oct-10 08:04N 38°29' E 015°50'0 1.9
2017-Oct-10 08:00N 38°29' E 015°50'2 0.8
2017-Oct-10 05:42N 38°27' E 015°49'1 3.7
2017-Oct-10 05:19N 38°26' E 015°47'2 4.4
2017-Oct-10 04:59N 38°26' E 015°46'4 7.5
2017-Oct-10 04:30N 38°24' E 015°41'5 9.4
2017-Oct-10 04:00N 38°24' E 015°36'5 9.2
2017-Oct-10 03:31N 38°23' E 015°30'5 9.3
2017-Oct-10 03:00N 38°22' E 015°24'4 9.0
2017-Oct-10 02:30N 38°21' E 015°18'4 8.8
2017-Oct-10 02:00N 38°20' E 015°13'4 8.9
2017-Oct-10 01:30N 38°19' E 015°07'4 9.0
2017-Oct-10 01:00N 38°18' E 015°02'5 8.8
2017-Oct-10 00:30N 38°17' E 014°56'4 8.8
2017-Oct-10 00:00N 38°17' E 014°51'4 8.8
2017-Oct-09 23:30N 38°18' E 014°45'4 8.9
2017-Oct-09 23:00N 38°18' E 014°40'4 8.9
2017-Oct-09 22:30N 38°19' E 014°34'6 9.0
2017-Oct-09 21:51N 38°19' E 014°26'31 9.1
2017-Oct-09 18:25N 38°23' E 013°47'6 9.4
2017-Oct-09 17:48N 38°24' E 013°39'3 9.6
2017-Oct-09 17:30N 38°24' E 013°36'6 9.5
2017-Oct-09 16:52N 38°25' E 013°28'410.1
2017-Oct-09 16:30N 38°25' E 013°24'611.1
2017-Oct-09 15:59N 38°25' E 013°16'611.3
2017-Oct-09 15:28N 38°26' E 013°09'511.3
2017-Oct-09 15:00N 38°26' E 013°02'611.4
2017-Oct-09 14:30N 38°27' E 012°55'611.4
2017-Oct-09 14:00N 38°27' E 012°48'611.3
2017-Oct-09 13:29N 38°27' E 012°40'17912.0
2017-Oct-08 22:33N 38°40' E 008°51'112.2
2017-Oct-08 22:30N 38°40' E 008°51'612.2
2017-Oct-08 22:00N 38°41' E 008°43'26312.4
2017-Oct-08 00:48N 38°59' E 003°06'613.7
2017-Oct-08 00:20N 38°60' E 002°57'613.3
2017-Oct-07 23:51N 39°01' E 002°49'513.2
2017-Oct-07 23:30N 39°01' E 002°43'  
Track history (hours):
 
Tides and Currents Weather Stations Pressure Air Temp Water Temp Dewpoint Dewpoint Depression Visibility Wind Speed Wind Dir Waves Ship Positions

MSC Adriana

Last reported at 2017-Oct-16 21:15 UTC. Time now 2017-Oct-20 16:28 UTC.
Position N 32°55' E 034°44'.

Length 216 m; draft 7.6 m.

Type: Cargo ship. MMSI: 215108000.

Date/timePositionNaut miles runAvg speedWind from/ knotsBaromVisibWave heightAir tempDewpointWater temp
2017-Oct-16 21:15N 32°55' E 034°44'10 0.5
2017-Oct-16 03:09N 32°54' E 034°56'  
2017-Oct-12 22:50N 37°46' E 016°02'1112.7
2017-Oct-12 22:00N 37°50' E 015°50'612.5
2017-Oct-12 21:30N 37°52' E 015°43'612.5
2017-Oct-12 21:00N 37°55' E 015°35'611.6
2017-Oct-12 20:30N 38°00' E 015°33'612.5
2017-Oct-12 20:01N 38°06' E 015°35'612.3
2017-Oct-12 19:30N 38°12' E 015°35'714.7
2017-Oct-12 19:00N 38°18' E 015°42'612.4
2017-Oct-12 18:31N 38°22' E 015°47'611.9
2017-Oct-12 18:01N 38°27' E 015°52'2 1.3
2017-Oct-12 16:44N 38°27' E 015°54'0 0.0
2017-Oct-12 16:20N 38°27' E 015°54'0 0.0
2017-Oct-12 14:41N 38°27' E 015°54'0 0.0
2017-Oct-12 14:20N 38°27' E 015°54'0 0.0
2017-Oct-12 12:59N 38°27' E 015°54'0 0.0
2017-Oct-12 12:29N 38°27' E 015°54'0 0.0
2017-Oct-12 10:35N 38°27' E 015°54'0 0.0
2017-Oct-12 10:23N 38°27' E 015°54'0 0.0
2017-Oct-12 08:44N 38°27' E 015°54'0 0.0
2017-Oct-12 08:20N 38°27' E 015°54'0 0.0
2017-Oct-12 07:56N 38°27' E 015°54'0 0.0
2017-Oct-12 07:26N 38°27' E 015°54'0 0.0
2017-Oct-12 06:59N 38°27' E 015°54'0 0.0
2017-Oct-12 06:29N 38°27' E 015°54'0 0.0
2017-Oct-12 05:26N 38°27' E 015°54'0 0.0
2017-Oct-12 04:41N 38°27' E 015°54'0 0.0
2017-Oct-12 01:02N 38°27' E 015°54'0 0.0
2017-Oct-12 00:56N 38°27' E 015°54'0 0.0
2017-Oct-12 00:26N 38°27' E 015°54'0 0.0
2017-Oct-11 23:56N 38°27' E 015°54'0 0.0
2017-Oct-11 23:26N 38°27' E 015°54'0 0.0
2017-Oct-11 22:50N 38°27' E 015°54'0 0.0
2017-Oct-11 22:26N 38°27' E 015°54'0 0.0
2017-Oct-11 21:56N 38°27' E 015°54'0 0.0
2017-Oct-11 21:26N 38°27' E 015°54'0 0.0
2017-Oct-11 20:56N 38°27' E 015°54'0 0.0
2017-Oct-11 19:44N 38°27' E 015°54'0 0.0
2017-Oct-11 19:23N 38°27' E 015°54'0 0.0
2017-Oct-11 18:56N 38°27' E 015°54'0 0.0
2017-Oct-11 17:50N 38°27' E 015°54'0 0.0
2017-Oct-11 17:26N 38°27' E 015°54'0 0.0
2017-Oct-11 16:41N 38°27' E 015°54'11 0.6
2017-Oct-10 23:56N 38°27' E 015°41'0 0.7
2017-Oct-10 23:30N 38°27' E 015°40'0 0.2
2017-Oct-10 23:00N 38°27' E 015°40'0 0.4
2017-Oct-10 22:30N 38°27' E 015°41'0 0.5
2017-Oct-10 21:59N 38°27' E 015°41'0 0.7
2017-Oct-10 21:30N 38°27' E 015°41'4 7.4
2017-Oct-10 21:00N 38°29' E 015°45'2 3.1
2017-Oct-10 20:30N 38°30' E 015°47'0 0.3
2017-Oct-10 20:00N 38°30' E 015°47'0 0.3
2017-Oct-10 19:30N 38°30' E 015°47'0 0.2
2017-Oct-10 19:00N 38°30' E 015°47'3 0.6
2017-Oct-10 13:25N 38°28' E 015°43'5 1.0
2017-Oct-10 08:04N 38°29' E 015°50'0 1.9
2017-Oct-10 08:00N 38°29' E 015°50'2 0.8
2017-Oct-10 05:42N 38°27' E 015°49'1 3.7
2017-Oct-10 05:19N 38°26' E 015°47'2 4.4
2017-Oct-10 04:59N 38°26' E 015°46'4 7.5
2017-Oct-10 04:30N 38°24' E 015°41'5 9.4
2017-Oct-10 04:00N 38°24' E 015°36'5 9.2
2017-Oct-10 03:31N 38°23' E 015°30'5 9.3
2017-Oct-10 03:00N 38°22' E 015°24'4 9.0
2017-Oct-10 02:30N 38°21' E 015°18'4 8.8
2017-Oct-10 02:00N 38°20' E 015°13'4 8.9
2017-Oct-10 01:30N 38°19' E 015°07'4 9.0
2017-Oct-10 01:00N 38°18' E 015°02'5 8.8
2017-Oct-10 00:30N 38°17' E 014°56'4 8.8
2017-Oct-10 00:00N 38°17' E 014°51'4 8.8
2017-Oct-09 23:30N 38°18' E 014°45'4 8.9
2017-Oct-09 23:00N 38°18' E 014°40'4 8.9
2017-Oct-09 22:30N 38°19' E 014°34'6 9.0
2017-Oct-09 21:51N 38°19' E 014°26'31 9.1
2017-Oct-09 18:25N 38°23' E 013°47'6 9.4
2017-Oct-09 17:48N 38°24' E 013°39'3 9.6
2017-Oct-09 17:30N 38°24' E 013°36'6 9.5
2017-Oct-09 16:52N 38°25' E 013°28'410.1
2017-Oct-09 16:30N 38°25' E 013°24'611.1
2017-Oct-09 15:59N 38°25' E 013°16'611.3
2017-Oct-09 15:28N 38°26' E 013°09'511.3
2017-Oct-09 15:00N 38°26' E 013°02'611.4
2017-Oct-09 14:30N 38°27' E 012°55'611.4
2017-Oct-09 14:00N 38°27' E 012°48'611.3
2017-Oct-09 13:29N 38°27' E 012°40'17912.0
2017-Oct-08 22:33N 38°40' E 008°51'112.2
2017-Oct-08 22:30N 38°40' E 008°51'612.2
2017-Oct-08 22:00N 38°41' E 008°43'26312.4
2017-Oct-08 00:48N 38°59' E 003°06'613.7
2017-Oct-08 00:20N 38°60' E 002°57'613.3
2017-Oct-07 23:51N 39°01' E 002°49'513.2
2017-Oct-07 23:30N 39°01' E 002°43'  

Dump ship's entire track history